sensor_id;sensor_type;location;lat;lon;timestamp;P1;durP1;ratioP1;P2;durP2;ratioP2
8564;SDS011;4320;51.498;6.556;2023-05-29T00:00:06;6.63;;;3.58;;
8564;SDS011;4320;51.498;6.556;2023-05-29T00:02:33;5.63;;;3.80;;
8564;SDS011;4320;51.498;6.556;2023-05-29T00:04:59;6.28;;;3.75;;
8564;SDS011;4320;51.498;6.556;2023-05-29T00:07:28;7.18;;;4.03;;
8564;SDS011;4320;51.498;6.556;2023-05-29T00:09:54;7.32;;;3.85;;
8564;SDS011;4320;51.498;6.556;2023-05-29T00:12:20;4.85;;;3.38;;
8564;SDS011;4320;51.498;6.556;2023-05-29T00:14:47;7.57;;;3.80;;
8564;SDS011;4320;51.498;6.556;2023-05-29T00:17:14;5.30;;;3.40;;
8564;SDS011;4320;51.498;6.556;2023-05-29T00:19:40;6.05;;;3.63;;
8564;SDS011;4320;51.498;6.556;2023-05-29T00:22:06;4.90;;;3.58;;
8564;SDS011;4320;51.498;6.556;2023-05-29T00:24:32;6.10;;;4.10;;
8564;SDS011;4320;51.498;6.556;2023-05-29T00:26:57;6.30;;;3.63;;
8564;SDS011;4320;51.498;6.556;2023-05-29T00:29:23;9.02;;;4.10;;
8564;SDS011;4320;51.498;6.556;2023-05-29T00:31:48;6.55;;;4.40;;
8564;SDS011;4320;51.498;6.556;2023-05-29T00:34:14;5.53;;;4.07;;
8564;SDS011;4320;51.498;6.556;2023-05-29T00:36:40;4.55;;;4.03;;
8564;SDS011;4320;51.498;6.556;2023-05-29T00:39:06;8.60;;;4.43;;
8564;SDS011;4320;51.498;6.556;2023-05-29T00:41:31;5.90;;;4.10;;
8564;SDS011;4320;51.498;6.556;2023-05-29T00:43:57;10.45;;;4.63;;
8564;SDS011;4320;51.498;6.556;2023-05-29T00:46:22;8.30;;;4.65;;
8564;SDS011;4320;51.498;6.556;2023-05-29T00:48:48;9.15;;;5.13;;
8564;SDS011;4320;51.498;6.556;2023-05-29T00:51:14;6.70;;;4.18;;
8564;SDS011;4320;51.498;6.556;2023-05-29T00:53:41;9.98;;;4.78;;
8564;SDS011;4320;51.498;6.556;2023-05-29T00:56:09;10.30;;;4.90;;
8564;SDS011;4320;51.498;6.556;2023-05-29T00:58:35;8.25;;;5.00;;
8564;SDS011;4320;51.498;6.556;2023-05-29T01:01:01;10.85;;;5.75;;
8564;SDS011;4320;51.498;6.556;2023-05-29T01:03:28;9.32;;;4.82;;
8564;SDS011;4320;51.498;6.556;2023-05-29T01:05:54;9.73;;;5.10;;
8564;SDS011;4320;51.498;6.556;2023-05-29T01:08:19;9.65;;;4.45;;
8564;SDS011;4320;51.498;6.556;2023-05-29T01:10:45;6.13;;;4.60;;
8564;SDS011;4320;51.498;6.556;2023-05-29T01:13:18;7.60;;;4.85;;
8564;SDS011;4320;51.498;6.556;2023-05-29T01:21:23;12.25;;;5.20;;
8564;SDS011;4320;51.498;6.556;2023-05-29T01:26:49;8.55;;;4.93;;
8564;SDS011;4320;51.498;6.556;2023-05-29T01:29:35;9.73;;;5.00;;
8564;SDS011;4320;51.498;6.556;2023-05-29T01:32:05;9.20;;;4.13;;
8564;SDS011;4320;51.498;6.556;2023-05-29T01:34:31;10.10;;;3.60;;
8564;SDS011;4320;51.498;6.556;2023-05-29T01:36:57;7.40;;;4.05;;
8564;SDS011;4320;51.498;6.556;2023-05-29T01:39:23;7.22;;;3.53;;
8564;SDS011;4320;51.498;6.556;2023-05-29T01:41:49;10.80;;;3.95;;
8564;SDS011;4320;51.498;6.556;2023-05-29T01:44:16;8.80;;;3.53;;
8564;SDS011;4320;51.498;6.556;2023-05-29T01:46:43;8.68;;;3.10;;
8564;SDS011;4320;51.498;6.556;2023-05-29T01:49:10;4.65;;;2.67;;
8564;SDS011;4320;51.498;6.556;2023-05-29T01:51:40;9.20;;;3.47;;
8564;SDS011;4320;51.498;6.556;2023-05-29T01:54:06;10.10;;;3.38;;
8564;SDS011;4320;51.498;6.556;2023-05-29T01:56:32;9.43;;;3.67;;
8564;SDS011;4320;51.498;6.556;2023-05-29T01:58:58;9.13;;;3.20;;
8564;SDS011;4320;51.498;6.556;2023-05-29T02:01:26;9.75;;;3.20;;
8564;SDS011;4320;51.498;6.556;2023-05-29T02:03:52;10.52;;;3.13;;
8564;SDS011;4320;51.498;6.556;2023-05-29T02:06:18;6.93;;;2.72;;
8564;SDS011;4320;51.498;6.556;2023-05-29T02:08:44;10.93;;;3.35;;
8564;SDS011;4320;51.498;6.556;2023-05-29T02:11:10;7.88;;;3.88;;
8564;SDS011;4320;51.498;6.556;2023-05-29T02:13:35;10.10;;;3.40;;
8564;SDS011;4320;51.498;6.556;2023-05-29T02:16:01;9.25;;;3.38;;
8564;SDS011;4320;51.498;6.556;2023-05-29T02:18:26;9.50;;;2.88;;
8564;SDS011;4320;51.498;6.556;2023-05-29T02:20:52;8.35;;;3.28;;
8564;SDS011;4320;51.498;6.556;2023-05-29T02:23:18;11.85;;;3.75;;
8564;SDS011;4320;51.498;6.556;2023-05-29T02:25:44;9.38;;;3.42;;
8564;SDS011;4320;51.498;6.556;2023-05-29T02:28:10;10.40;;;3.83;;
8564;SDS011;4320;51.498;6.556;2023-05-29T02:30:36;10.15;;;3.35;;
8564;SDS011;4320;51.498;6.556;2023-05-29T02:33:02;11.20;;;3.67;;
8564;SDS011;4320;51.498;6.556;2023-05-29T02:35:27;6.35;;;3.38;;
8564;SDS011;4320;51.498;6.556;2023-05-29T02:37:53;17.90;;;3.90;;
8564;SDS011;4320;51.498;6.556;2023-05-29T02:40:18;10.95;;;3.60;;
8564;SDS011;4320;51.498;6.556;2023-05-29T02:42:45;9.65;;;4.00;;
8564;SDS011;4320;51.498;6.556;2023-05-29T02:45:11;13.57;;;3.83;;
8564;SDS011;4320;51.498;6.556;2023-05-29T02:47:36;9.05;;;3.78;;
8564;SDS011;4320;51.498;6.556;2023-05-29T02:50:02;8.82;;;3.65;;
8564;SDS011;4320;51.498;6.556;2023-05-29T02:52:29;11.73;;;3.92;;
8564;SDS011;4320;51.498;6.556;2023-05-29T02:54:57;13.07;;;3.67;;
8564;SDS011;4320;51.498;6.556;2023-05-29T02:57:23;9.77;;;3.40;;
8564;SDS011;4320;51.498;6.556;2023-05-29T02:59:49;12.30;;;3.63;;
8564;SDS011;4320;51.498;6.556;2023-05-29T03:02:16;12.77;;;3.83;;
8564;SDS011;4320;51.498;6.556;2023-05-29T03:04:42;18.15;;;3.92;;
8564;SDS011;4320;51.498;6.556;2023-05-29T03:07:09;11.45;;;3.45;;
8564;SDS011;4320;51.498;6.556;2023-05-29T03:09:35;13.40;;;3.58;;
8564;SDS011;4320;51.498;6.556;2023-05-29T03:12:00;11.25;;;3.63;;
8564;SDS011;4320;51.498;6.556;2023-05-29T03:14:26;13.73;;;3.47;;
8564;SDS011;4320;51.498;6.556;2023-05-29T03:16:52;8.07;;;3.17;;
8564;SDS011;4320;51.498;6.556;2023-05-29T03:19:18;11.80;;;3.47;;
8564;SDS011;4320;51.498;6.556;2023-05-29T03:21:45;9.55;;;3.40;;
8564;SDS011;4320;51.498;6.556;2023-05-29T03:24:10;12.85;;;3.40;;
8564;SDS011;4320;51.498;6.556;2023-05-29T03:26:38;10.82;;;3.60;;
8564;SDS011;4320;51.498;6.556;2023-05-29T03:29:04;12.18;;;3.50;;
8564;SDS011;4320;51.498;6.556;2023-05-29T03:31:30;15.38;;;4.28;;
8564;SDS011;4320;51.498;6.556;2023-05-29T03:33:56;10.80;;;3.60;;
8564;SDS011;4320;51.498;6.556;2023-05-29T03:36:21;13.10;;;3.55;;
8564;SDS011;4320;51.498;6.556;2023-05-29T03:38:47;15.90;;;4.60;;
8564;SDS011;4320;51.498;6.556;2023-05-29T03:41:13;23.05;;;4.40;;
8564;SDS011;4320;51.498;6.556;2023-05-29T03:43:38;12.05;;;3.53;;
8564;SDS011;4320;51.498;6.556;2023-05-29T03:46:04;9.52;;;3.33;;
8564;SDS011;4320;51.498;6.556;2023-05-29T03:48:29;12.43;;;3.92;;
8564;SDS011;4320;51.498;6.556;2023-05-29T03:50:55;15.10;;;3.78;;
8564;SDS011;4320;51.498;6.556;2023-05-29T03:53:21;9.82;;;3.25;;
8564;SDS011;4320;51.498;6.556;2023-05-29T03:55:47;11.93;;;4.00;;
8564;SDS011;4320;51.498;6.556;2023-05-29T03:58:12;12.27;;;3.95;;
8564;SDS011;4320;51.498;6.556;2023-05-29T04:00:38;11.27;;;3.22;;
8564;SDS011;4320;51.498;6.556;2023-05-29T04:03:04;16.50;;;4.07;;
8564;SDS011;4320;51.498;6.556;2023-05-29T04:05:30;12.52;;;3.95;;
8564;SDS011;4320;51.498;6.556;2023-05-29T04:07:55;14.82;;;3.58;;
8564;SDS011;4320;51.498;6.556;2023-05-29T04:10:21;11.60;;;3.72;;
8564;SDS011;4320;51.498;6.556;2023-05-29T04:12:48;13.93;;;3.90;;
8564;SDS011;4320;51.498;6.556;2023-05-29T04:15:14;16.90;;;4.38;;
8564;SDS011;4320;51.498;6.556;2023-05-29T04:17:39;15.07;;;3.97;;
8564;SDS011;4320;51.498;6.556;2023-05-29T04:20:05;12.00;;;3.55;;
8564;SDS011;4320;51.498;6.556;2023-05-29T04:22:36;18.02;;;3.92;;
8564;SDS011;4320;51.498;6.556;2023-05-29T04:25:03;15.43;;;3.95;;
8564;SDS011;4320;51.498;6.556;2023-05-29T04:27:33;12.32;;;3.60;;
8564;SDS011;4320;51.498;6.556;2023-05-29T04:30:02;12.23;;;3.75;;
8564;SDS011;4320;51.498;6.556;2023-05-29T04:32:31;14.75;;;3.80;;
8564;SDS011;4320;51.498;6.556;2023-05-29T04:34:58;11.32;;;3.80;;
8564;SDS011;4320;51.498;6.556;2023-05-29T04:37:28;20.75;;;4.07;;
8564;SDS011;4320;51.498;6.556;2023-05-29T04:39:55;12.77;;;3.65;;
8564;SDS011;4320;51.498;6.556;2023-05-29T04:42:22;12.40;;;3.60;;
8564;SDS011;4320;51.498;6.556;2023-05-29T04:44:49;13.98;;;3.83;;
8564;SDS011;4320;51.498;6.556;2023-05-29T04:47:17;17.10;;;3.72;;
8564;SDS011;4320;51.498;6.556;2023-05-29T04:49:44;11.82;;;3.47;;
8564;SDS011;4320;51.498;6.556;2023-05-29T04:52:13;18.67;;;3.95;;
8564;SDS011;4320;51.498;6.556;2023-05-29T04:54:40;13.38;;;3.92;;
8564;SDS011;4320;51.498;6.556;2023-05-29T04:57:06;22.95;;;4.30;;
8564;SDS011;4320;51.498;6.556;2023-05-29T04:59:31;13.95;;;3.78;;
8564;SDS011;4320;51.498;6.556;2023-05-29T05:01:57;11.60;;;3.85;;
8564;SDS011;4320;51.498;6.556;2023-05-29T05:04:22;11.02;;;3.58;;
8564;SDS011;4320;51.498;6.556;2023-05-29T05:06:48;14.68;;;3.58;;
8564;SDS011;4320;51.498;6.556;2023-05-29T05:09:14;18.50;;;4.38;;
8564;SDS011;4320;51.498;6.556;2023-05-29T05:11:40;16.45;;;4.40;;
8564;SDS011;4320;51.498;6.556;2023-05-29T05:14:06;16.10;;;3.78;;
8564;SDS011;4320;51.498;6.556;2023-05-29T05:16:31;10.30;;;3.35;;
8564;SDS011;4320;51.498;6.556;2023-05-29T05:18:58;12.13;;;4.03;;
8564;SDS011;4320;51.498;6.556;2023-05-29T05:21:23;16.15;;;3.72;;
8564;SDS011;4320;51.498;6.556;2023-05-29T05:23:49;17.15;;;3.63;;
8564;SDS011;4320;51.498;6.556;2023-05-29T05:26:14;12.00;;;3.45;;
8564;SDS011;4320;51.498;6.556;2023-05-29T05:28:40;16.23;;;3.80;;
8564;SDS011;4320;51.498;6.556;2023-05-29T05:31:05;12.25;;;3.45;;
8564;SDS011;4320;51.498;6.556;2023-05-29T05:33:31;19.20;;;4.03;;
8564;SDS011;4320;51.498;6.556;2023-05-29T05:35:57;17.75;;;3.22;;
8564;SDS011;4320;51.498;6.556;2023-05-29T05:38:22;15.50;;;3.75;;
8564;SDS011;4320;51.498;6.556;2023-05-29T05:40:48;16.73;;;4.45;;
8564;SDS011;4320;51.498;6.556;2023-05-29T05:43:13;16.40;;;4.05;;
8564;SDS011;4320;51.498;6.556;2023-05-29T05:45:39;11.60;;;3.13;;
8564;SDS011;4320;51.498;6.556;2023-05-29T05:48:07;14.75;;;3.83;;
8564;SDS011;4320;51.498;6.556;2023-05-29T05:50:33;14.15;;;3.33;;
8564;SDS011;4320;51.498;6.556;2023-05-29T05:52:59;13.55;;;3.67;;
8564;SDS011;4320;51.498;6.556;2023-05-29T05:55:24;9.98;;;3.50;;
8564;SDS011;4320;51.498;6.556;2023-05-29T05:57:52;14.07;;;3.33;;
8564;SDS011;4320;51.498;6.556;2023-05-29T06:00:18;12.90;;;3.72;;
8564;SDS011;4320;51.498;6.556;2023-05-29T06:02:44;11.70;;;3.53;;
8564;SDS011;4320;51.498;6.556;2023-05-29T06:05:10;14.15;;;3.70;;
8564;SDS011;4320;51.498;6.556;2023-05-29T06:07:36;17.45;;;3.42;;
8564;SDS011;4320;51.498;6.556;2023-05-29T06:10:03;10.10;;;3.42;;
8564;SDS011;4320;51.498;6.556;2023-05-29T06:12:29;12.82;;;3.33;;
8564;SDS011;4320;51.498;6.556;2023-05-29T06:14:55;14.70;;;3.65;;
8564;SDS011;4320;51.498;6.556;2023-05-29T06:17:21;9.90;;;3.85;;
8564;SDS011;4320;51.498;6.556;2023-05-29T06:19:47;14.38;;;3.63;;
8564;SDS011;4320;51.498;6.556;2023-05-29T06:22:13;12.73;;;3.38;;
8564;SDS011;4320;51.498;6.556;2023-05-29T06:24:40;12.55;;;2.90;;
8564;SDS011;4320;51.498;6.556;2023-05-29T06:27:05;12.00;;;3.35;;
8564;SDS011;4320;51.498;6.556;2023-05-29T06:29:31;12.30;;;4.43;;
8564;SDS011;4320;51.498;6.556;2023-05-29T06:31:58;14.65;;;3.80;;
8564;SDS011;4320;51.498;6.556;2023-05-29T06:34:23;12.45;;;3.75;;
8564;SDS011;4320;51.498;6.556;2023-05-29T06:36:49;14.73;;;3.53;;
8564;SDS011;4320;51.498;6.556;2023-05-29T06:39:15;15.68;;;4.53;;
8564;SDS011;4320;51.498;6.556;2023-05-29T06:41:41;11.50;;;3.50;;
8564;SDS011;4320;51.498;6.556;2023-05-29T06:44:06;13.60;;;4.28;;
8564;SDS011;4320;51.498;6.556;2023-05-29T06:46:32;15.75;;;3.70;;
8564;SDS011;4320;51.498;6.556;2023-05-29T06:48:58;13.65;;;2.72;;
8564;SDS011;4320;51.498;6.556;2023-05-29T06:51:23;13.43;;;3.72;;
8564;SDS011;4320;51.498;6.556;2023-05-29T06:53:49;13.30;;;3.45;;
8564;SDS011;4320;51.498;6.556;2023-05-29T06:56:14;13.80;;;3.58;;
8564;SDS011;4320;51.498;6.556;2023-05-29T06:58:40;13.35;;;3.38;;
8564;SDS011;4320;51.498;6.556;2023-05-29T07:01:06;9.77;;;3.60;;
8564;SDS011;4320;51.498;6.556;2023-05-29T07:03:31;14.98;;;3.33;;
8564;SDS011;4320;51.498;6.556;2023-05-29T07:05:57;19.77;;;4.03;;
8564;SDS011;4320;51.498;6.556;2023-05-29T07:08:24;10.73;;;3.13;;
8564;SDS011;4320;51.498;6.556;2023-05-29T07:10:50;13.05;;;3.40;;
8564;SDS011;4320;51.498;6.556;2023-05-29T07:13:15;11.23;;;3.47;;
8564;SDS011;4320;51.498;6.556;2023-05-29T07:15:42;11.15;;;3.58;;
8564;SDS011;4320;51.498;6.556;2023-05-29T07:18:11;12.93;;;3.47;;
8564;SDS011;4320;51.498;6.556;2023-05-29T07:20:37;15.20;;;3.40;;
8564;SDS011;4320;51.498;6.556;2023-05-29T07:23:02;11.27;;;3.33;;
8564;SDS011;4320;51.498;6.556;2023-05-29T07:25:29;8.57;;;3.30;;
8564;SDS011;4320;51.498;6.556;2023-05-29T07:27:55;13.75;;;3.47;;
8564;SDS011;4320;51.498;6.556;2023-05-29T07:30:21;10.00;;;3.55;;
8564;SDS011;4320;51.498;6.556;2023-05-29T07:32:47;8.75;;;2.97;;
8564;SDS011;4320;51.498;6.556;2023-05-29T07:35:12;9.00;;;2.85;;
8564;SDS011;4320;51.498;6.556;2023-05-29T07:37:38;12.00;;;3.28;;
8564;SDS011;4320;51.498;6.556;2023-05-29T07:40:04;11.63;;;3.25;;
8564;SDS011;4320;51.498;6.556;2023-05-29T07:42:32;10.93;;;3.53;;
8564;SDS011;4320;51.498;6.556;2023-05-29T07:44:59;13.32;;;4.03;;
8564;SDS011;4320;51.498;6.556;2023-05-29T07:47:25;7.60;;;2.90;;
8564;SDS011;4320;51.498;6.556;2023-05-29T07:49:50;8.90;;;3.15;;
8564;SDS011;4320;51.498;6.556;2023-05-29T07:52:17;14.57;;;3.55;;
8564;SDS011;4320;51.498;6.556;2023-05-29T07:54:43;13.63;;;3.33;;
8564;SDS011;4320;51.498;6.556;2023-05-29T07:57:09;13.77;;;3.78;;
8564;SDS011;4320;51.498;6.556;2023-05-29T07:59:35;8.90;;;3.15;;
8564;SDS011;4320;51.498;6.556;2023-05-29T08:02:01;9.75;;;2.90;;
8564;SDS011;4320;51.498;6.556;2023-05-29T08:04:28;9.65;;;3.13;;
8564;SDS011;4320;51.498;6.556;2023-05-29T08:06:54;8.65;;;3.10;;
8564;SDS011;4320;51.498;6.556;2023-05-29T08:09:20;10.52;;;3.65;;
8564;SDS011;4320;51.498;6.556;2023-05-29T08:11:46;10.93;;;3.45;;
8564;SDS011;4320;51.498;6.556;2023-05-29T08:14:13;9.63;;;3.15;;
8564;SDS011;4320;51.498;6.556;2023-05-29T08:16:39;11.52;;;3.45;;
8564;SDS011;4320;51.498;6.556;2023-05-29T08:19:05;9.63;;;4.07;;
8564;SDS011;4320;51.498;6.556;2023-05-29T08:21:31;8.20;;;3.47;;
8564;SDS011;4320;51.498;6.556;2023-05-29T08:23:57;14.20;;;3.22;;
8564;SDS011;4320;51.498;6.556;2023-05-29T08:26:27;14.93;;;3.70;;
8564;SDS011;4320;51.498;6.556;2023-05-29T08:28:52;11.48;;;3.05;;
8564;SDS011;4320;51.498;6.556;2023-05-29T08:31:19;12.43;;;3.38;;
8564;SDS011;4320;51.498;6.556;2023-05-29T08:33:45;10.90;;;3.22;;
8564;SDS011;4320;51.498;6.556;2023-05-29T08:36:10;11.40;;;3.72;;
8564;SDS011;4320;51.498;6.556;2023-05-29T08:38:36;12.98;;;3.17;;
8564;SDS011;4320;51.498;6.556;2023-05-29T08:41:02;13.30;;;3.97;;
8564;SDS011;4320;51.498;6.556;2023-05-29T08:43:31;8.82;;;2.97;;
8564;SDS011;4320;51.498;6.556;2023-05-29T08:46:01;11.20;;;3.42;;
8564;SDS011;4320;51.498;6.556;2023-05-29T08:48:28;10.32;;;3.42;;
8564;SDS011;4320;51.498;6.556;2023-05-29T08:50:55;10.10;;;3.63;;
8564;SDS011;4320;51.498;6.556;2023-05-29T08:53:22;10.27;;;2.95;;
8564;SDS011;4320;51.498;6.556;2023-05-29T08:55:49;9.25;;;3.25;;
8564;SDS011;4320;51.498;6.556;2023-05-29T08:58:17;7.10;;;3.10;;
8564;SDS011;4320;51.498;6.556;2023-05-29T09:00:47;8.50;;;3.30;;
8564;SDS011;4320;51.498;6.556;2023-05-29T09:03:14;9.93;;;3.08;;
8564;SDS011;4320;51.498;6.556;2023-05-29T09:05:40;14.30;;;3.45;;
8564;SDS011;4320;51.498;6.556;2023-05-29T09:08:06;12.25;;;3.88;;
8564;SDS011;4320;51.498;6.556;2023-05-29T09:10:33;11.25;;;3.40;;
8564;SDS011;4320;51.498;6.556;2023-05-29T09:12:59;10.13;;;2.90;;
8564;SDS011;4320;51.498;6.556;2023-05-29T09:15:25;10.80;;;3.33;;
8564;SDS011;4320;51.498;6.556;2023-05-29T09:20:18;10.35;;;3.00;;
8564;SDS011;4320;51.498;6.556;2023-05-29T09:22:54;10.73;;;3.33;;
8564;SDS011;4320;51.498;6.556;2023-05-29T09:25:25;9.57;;;3.50;;
8564;SDS011;4320;51.498;6.556;2023-05-29T09:33:16;13.63;;;3.47;;
8564;SDS011;4320;51.498;6.556;2023-05-29T09:35:46;12.20;;;3.17;;
8564;SDS011;4320;51.498;6.556;2023-05-29T09:38:13;8.15;;;2.80;;
8564;SDS011;4320;51.498;6.556;2023-05-29T09:40:41;13.25;;;3.28;;
8564;SDS011;4320;51.498;6.556;2023-05-29T09:45:38;13.55;;;3.17;;
8564;SDS011;4320;51.498;6.556;2023-05-29T09:48:05;9.38;;;3.05;;
8564;SDS011;4320;51.498;6.556;2023-05-29T09:50:32;7.15;;;3.25;;
8564;SDS011;4320;51.498;6.556;2023-05-29T09:52:59;9.63;;;3.42;;
8564;SDS011;4320;51.498;6.556;2023-05-29T09:55:26;8.75;;;3.42;;
8564;SDS011;4320;51.498;6.556;2023-05-29T09:57:53;11.25;;;3.10;;
8564;SDS011;4320;51.498;6.556;2023-05-29T10:00:20;12.45;;;3.33;;
8564;SDS011;4320;51.498;6.556;2023-05-29T10:02:47;11.18;;;3.08;;
8564;SDS011;4320;51.498;6.556;2023-05-29T10:05:14;9.55;;;3.33;;
8564;SDS011;4320;51.498;6.556;2023-05-29T10:07:43;11.65;;;3.20;;
8564;SDS011;4320;51.498;6.556;2023-05-29T10:10:14;10.65;;;3.38;;
8564;SDS011;4320;51.498;6.556;2023-05-29T10:12:44;12.25;;;3.53;;
8564;SDS011;4320;51.498;6.556;2023-05-29T10:15:14;11.57;;;3.17;;
8564;SDS011;4320;51.498;6.556;2023-05-29T10:17:51;12.60;;;3.65;;
8564;SDS011;4320;51.498;6.556;2023-05-29T10:20:22;10.35;;;3.22;;
8564;SDS011;4320;51.498;6.556;2023-05-29T10:22:50;7.63;;;3.22;;
8564;SDS011;4320;51.498;6.556;2023-05-29T10:25:19;10.68;;;3.40;;
8564;SDS011;4320;51.498;6.556;2023-05-29T10:27:46;11.57;;;3.38;;
8564;SDS011;4320;51.498;6.556;2023-05-29T10:33:20;7.32;;;2.88;;
8564;SDS011;4320;51.498;6.556;2023-05-29T10:38:47;10.48;;;3.20;;
8564;SDS011;4320;51.498;6.556;2023-05-29T10:43:58;9.63;;;3.30;;
8564;SDS011;4320;51.498;6.556;2023-05-29T10:49:16;7.15;;;2.80;;
8564;SDS011;4320;51.498;6.556;2023-05-29T10:51:43;8.95;;;3.20;;
8564;SDS011;4320;51.498;6.556;2023-05-29T10:54:08;9.40;;;2.92;;
8564;SDS011;4320;51.498;6.556;2023-05-29T10:56:34;14.20;;;3.30;;
8564;SDS011;4320;51.498;6.556;2023-05-29T10:59:00;9.38;;;2.90;;
8564;SDS011;4320;51.498;6.556;2023-05-29T11:01:27;9.80;;;3.67;;
8564;SDS011;4320;51.498;6.556;2023-05-29T11:04:39;8.90;;;2.92;;
8564;SDS011;4320;51.498;6.556;2023-05-29T11:06:43;10.30;;;3.35;;
8564;SDS011;4320;51.498;6.556;2023-05-29T11:12:12;9.35;;;2.85;;
8564;SDS011;4320;51.498;6.556;2023-05-29T11:15:05;8.80;;;2.88;;
8564;SDS011;4320;51.498;6.556;2023-05-29T11:17:32;9.23;;;3.28;;
8564;SDS011;4320;51.498;6.556;2023-05-29T11:20:08;10.57;;;2.95;;
8564;SDS011;4320;51.498;6.556;2023-05-29T11:25:27;9.52;;;3.28;;
8564;SDS011;4320;51.498;6.556;2023-05-29T11:27:53;10.60;;;3.88;;
8564;SDS011;4320;51.498;6.556;2023-05-29T11:30:19;11.50;;;3.28;;
8564;SDS011;4320;51.498;6.556;2023-05-29T11:32:46;9.52;;;2.65;;
8564;SDS011;4320;51.498;6.556;2023-05-29T11:35:13;7.57;;;3.17;;
8564;SDS011;4320;51.498;6.556;2023-05-29T11:37:40;7.20;;;2.70;;
8564;SDS011;4320;51.498;6.556;2023-05-29T11:40:10;9.23;;;3.00;;
8564;SDS011;4320;51.498;6.556;2023-05-29T11:42:41;9.20;;;3.35;;
8564;SDS011;4320;51.498;6.556;2023-05-29T11:45:17;8.68;;;2.90;;
8564;SDS011;4320;51.498;6.556;2023-05-29T11:47:54;5.03;;;2.55;;
8564;SDS011;4320;51.498;6.556;2023-05-29T11:50:27;14.05;;;3.42;;
8564;SDS011;4320;51.498;6.556;2023-05-29T11:52:55;9.57;;;3.05;;
8564;SDS011;4320;51.498;6.556;2023-05-29T11:55:26;8.40;;;2.83;;
8564;SDS011;4320;51.498;6.556;2023-05-29T11:57:56;7.53;;;3.13;;
8564;SDS011;4320;51.498;6.556;2023-05-29T12:00:23;6.93;;;2.80;;
8564;SDS011;4320;51.498;6.556;2023-05-29T12:02:50;6.30;;;2.85;;
8564;SDS011;4320;51.498;6.556;2023-05-29T12:05:16;9.48;;;3.13;;
8564;SDS011;4320;51.498;6.556;2023-05-29T12:07:49;8.52;;;2.80;;
8564;SDS011;4320;51.498;6.556;2023-05-29T12:10:16;6.85;;;2.75;;
8564;SDS011;4320;51.498;6.556;2023-05-29T12:12:46;5.35;;;2.22;;
8564;SDS011;4320;51.498;6.556;2023-05-29T12:15:13;11.25;;;3.20;;
8564;SDS011;4320;51.498;6.556;2023-05-29T12:17:39;9.07;;;3.00;;
8564;SDS011;4320;51.498;6.556;2023-05-29T12:20:06;8.00;;;2.90;;
8564;SDS011;4320;51.498;6.556;2023-05-29T12:22:34;6.53;;;2.72;;
8564;SDS011;4320;51.498;6.556;2023-05-29T12:25:08;10.30;;;3.50;;
8564;SDS011;4320;51.498;6.556;2023-05-29T12:27:40;6.70;;;2.70;;
8564;SDS011;4320;51.498;6.556;2023-05-29T12:32:43;9.18;;;3.20;;
8564;SDS011;4320;51.498;6.556;2023-05-29T12:37:47;6.88;;;2.83;;
8564;SDS011;4320;51.498;6.556;2023-05-29T12:40:21;9.27;;;2.75;;
8564;SDS011;4320;51.498;6.556;2023-05-29T12:42:48;6.28;;;2.83;;
8564;SDS011;4320;51.498;6.556;2023-05-29T12:45:18;8.57;;;2.95;;
8564;SDS011;4320;51.498;6.556;2023-05-29T12:47:45;7.40;;;2.88;;
8564;SDS011;4320;51.498;6.556;2023-05-29T12:50:31;7.60;;;2.90;;
8564;SDS011;4320;51.498;6.556;2023-05-29T12:52:58;6.05;;;2.67;;
8564;SDS011;4320;51.498;6.556;2023-05-29T12:55:26;7.40;;;2.92;;
8564;SDS011;4320;51.498;6.556;2023-05-29T12:57:53;7.40;;;2.90;;
8564;SDS011;4320;51.498;6.556;2023-05-29T13:00:19;11.85;;;2.90;;
8564;SDS011;4320;51.498;6.556;2023-05-29T13:02:48;6.55;;;2.90;;
8564;SDS011;4320;51.498;6.556;2023-05-29T13:05:15;5.65;;;3.00;;
8564;SDS011;4320;51.498;6.556;2023-05-29T13:07:42;7.03;;;2.95;;
8564;SDS011;4320;51.498;6.556;2023-05-29T13:10:08;9.05;;;3.10;;
8564;SDS011;4320;51.498;6.556;2023-05-29T13:12:34;8.50;;;3.30;;
8564;SDS011;4320;51.498;6.556;2023-05-29T13:15:00;7.30;;;3.20;;
8564;SDS011;4320;51.498;6.556;2023-05-29T13:17:26;6.22;;;3.13;;
8564;SDS011;4320;51.498;6.556;2023-05-29T13:19:52;5.55;;;2.80;;
8564;SDS011;4320;51.498;6.556;2023-05-29T13:22:17;8.85;;;2.88;;
8564;SDS011;4320;51.498;6.556;2023-05-29T13:24:43;8.48;;;2.67;;
8564;SDS011;4320;51.498;6.556;2023-05-29T13:27:10;9.00;;;3.20;;
8564;SDS011;4320;51.498;6.556;2023-05-29T13:29:38;6.43;;;2.53;;
8564;SDS011;4320;51.498;6.556;2023-05-29T13:32:05;8.32;;;2.65;;
8564;SDS011;4320;51.498;6.556;2023-05-29T13:34:32;12.40;;;3.50;;
8564;SDS011;4320;51.498;6.556;2023-05-29T13:36:57;10.60;;;2.60;;
8564;SDS011;4320;51.498;6.556;2023-05-29T13:39:23;6.97;;;2.90;;
8564;SDS011;4320;51.498;6.556;2023-05-29T13:41:49;9.73;;;2.90;;
8564;SDS011;4320;51.498;6.556;2023-05-29T13:44:15;9.65;;;2.75;;
8564;SDS011;4320;51.498;6.556;2023-05-29T13:46:41;7.75;;;3.00;;
8564;SDS011;4320;51.498;6.556;2023-05-29T13:49:06;6.05;;;2.47;;
8564;SDS011;4320;51.498;6.556;2023-05-29T13:51:33;6.80;;;2.55;;
8564;SDS011;4320;51.498;6.556;2023-05-29T13:54:00;8.98;;;3.03;;
8564;SDS011;4320;51.498;6.556;2023-05-29T13:56:27;8.23;;;3.35;;
8564;SDS011;4320;51.498;6.556;2023-05-29T13:58:52;5.63;;;3.08;;
8564;SDS011;4320;51.498;6.556;2023-05-29T14:01:18;9.70;;;3.65;;
8564;SDS011;4320;51.498;6.556;2023-05-29T14:03:44;8.45;;;3.47;;
8564;SDS011;4320;51.498;6.556;2023-05-29T14:06:10;14.38;;;3.40;;
8564;SDS011;4320;51.498;6.556;2023-05-29T14:08:36;7.70;;;3.28;;
8564;SDS011;4320;51.498;6.556;2023-05-29T14:11:01;9.43;;;3.60;;
8564;SDS011;4320;51.498;6.556;2023-05-29T14:13:27;12.80;;;3.90;;
8564;SDS011;4320;51.498;6.556;2023-05-29T14:15:53;7.78;;;3.13;;
8564;SDS011;4320;51.498;6.556;2023-05-29T14:18:20;6.40;;;3.10;;
8564;SDS011;4320;51.498;6.556;2023-05-29T14:20:46;9.02;;;3.33;;
8564;SDS011;4320;51.498;6.556;2023-05-29T14:23:13;8.30;;;3.38;;
8564;SDS011;4320;51.498;6.556;2023-05-29T14:25:41;9.10;;;3.28;;
8564;SDS011;4320;51.498;6.556;2023-05-29T14:28:06;7.68;;;2.80;;
8564;SDS011;4320;51.498;6.556;2023-05-29T14:30:32;7.15;;;2.72;;
8564;SDS011;4320;51.498;6.556;2023-05-29T14:32:58;8.07;;;3.00;;
8564;SDS011;4320;51.498;6.556;2023-05-29T14:35:23;6.53;;;3.03;;
8564;SDS011;4320;51.498;6.556;2023-05-29T14:37:50;5.90;;;3.13;;
8564;SDS011;4320;51.498;6.556;2023-05-29T14:40:15;6.20;;;3.17;;
8564;SDS011;4320;51.498;6.556;2023-05-29T14:42:41;11.77;;;3.17;;
8564;SDS011;4320;51.498;6.556;2023-05-29T14:45:07;9.23;;;3.00;;
8564;SDS011;4320;51.498;6.556;2023-05-29T14:47:33;8.15;;;3.10;;
8564;SDS011;4320;51.498;6.556;2023-05-29T14:50:00;9.48;;;3.35;;
8564;SDS011;4320;51.498;6.556;2023-05-29T14:52:25;7.18;;;2.80;;
8564;SDS011;4320;51.498;6.556;2023-05-29T14:54:51;10.68;;;3.00;;
8564;SDS011;4320;51.498;6.556;2023-05-29T14:57:16;10.57;;;3.15;;
8564;SDS011;4320;51.498;6.556;2023-05-29T14:59:42;7.80;;;3.10;;
8564;SDS011;4320;51.498;6.556;2023-05-29T15:02:08;5.95;;;2.80;;
8564;SDS011;4320;51.498;6.556;2023-05-29T15:04:34;10.70;;;3.47;;
8564;SDS011;4320;51.498;6.556;2023-05-29T15:07:00;8.18;;;2.55;;
8564;SDS011;4320;51.498;6.556;2023-05-29T15:09:26;6.40;;;2.90;;
8564;SDS011;4320;51.498;6.556;2023-05-29T15:11:52;8.77;;;3.15;;
8564;SDS011;4320;51.498;6.556;2023-05-29T15:14:17;3.50;;;2.40;;
8564;SDS011;4320;51.498;6.556;2023-05-29T15:16:43;8.90;;;2.90;;
8564;SDS011;4320;51.498;6.556;2023-05-29T15:19:09;8.02;;;3.17;;
8564;SDS011;4320;51.498;6.556;2023-05-29T15:21:35;5.68;;;2.70;;
8564;SDS011;4320;51.498;6.556;2023-05-29T15:24:01;4.65;;;2.55;;
8564;SDS011;4320;51.498;6.556;2023-05-29T15:26:27;8.35;;;2.72;;
8564;SDS011;4320;51.498;6.556;2023-05-29T15:28:53;7.82;;;2.78;;
8564;SDS011;4320;51.498;6.556;2023-05-29T15:31:19;6.78;;;3.05;;
8564;SDS011;4320;51.498;6.556;2023-05-29T15:33:47;6.60;;;2.78;;
8564;SDS011;4320;51.498;6.556;2023-05-29T15:36:13;9.18;;;4.05;;
8564;SDS011;4320;51.498;6.556;2023-05-29T15:38:40;8.30;;;2.72;;
8564;SDS011;4320;51.498;6.556;2023-05-29T15:41:07;7.15;;;3.15;;
8564;SDS011;4320;51.498;6.556;2023-05-29T15:43:32;6.78;;;2.80;;
8564;SDS011;4320;51.498;6.556;2023-05-29T15:45:58;9.32;;;2.88;;